createdAt,value
2023-09-01T00:02:13.034Z,62.94
2023-09-01T00:04:39.319Z,62.58
2023-09-01T00:07:05.603Z,62.99
2023-09-01T00:09:31.882Z,62.91
2023-09-01T00:11:58.154Z,63.70
2023-09-01T00:14:24.536Z,65.17
2023-09-01T00:16:50.852Z,65.67
2023-09-01T00:19:17.127Z,65.02
2023-09-01T00:21:43.399Z,65.13
2023-09-01T00:24:09.668Z,65.00
2023-09-01T00:26:35.928Z,65.29
2023-09-01T00:29:02.241Z,64.86
2023-09-01T00:31:28.586Z,64.38
2023-09-01T00:33:54.857Z,65.90
2023-09-01T00:36:21.105Z,67.38
2023-09-01T00:38:47.386Z,68.76
2023-09-01T00:41:13.684Z,67.47
2023-09-01T00:43:39.957Z,66.20
2023-09-01T00:46:06.286Z,66.96
2023-09-01T00:48:32.640Z,67.31
2023-09-01T00:50:58.912Z,67.72
2023-09-01T00:53:25.187Z,66.42
2023-09-01T00:55:51.515Z,65.78
2023-09-01T00:58:17.852Z,65.48
2023-09-01T01:00:44.144Z,66.65
2023-09-01T01:03:10.555Z,66.52
2023-09-01T01:05:37.007Z,66.76
2023-09-01T01:08:03.287Z,67.37
2023-09-01T01:10:29.569Z,67.98
2023-09-01T01:12:55.874Z,66.63
2023-09-01T01:15:22.140Z,65.69
2023-09-01T01:17:48.453Z,65.55
2023-09-01T01:20:14.811Z,65.19
2023-09-01T01:22:41.182Z,64.46
2023-09-01T01:25:07.447Z,64.61
2023-09-01T01:27:33.756Z,65.81
2023-09-01T01:30:00.118Z,66.14
2023-09-01T01:32:26.432Z,67.20
2023-09-01T01:34:52.878Z,68.48
2023-09-01T01:37:19.160Z,68.26
2023-09-01T01:39:45.437Z,68.04
2023-09-01T01:42:11.701Z,68.38
2023-09-01T01:44:37.983Z,67.66
2023-09-01T01:47:04.363Z,67.07
2023-09-01T01:49:30.717Z,67.03
2023-09-01T01:51:56.987Z,67.14
2023-09-01T01:54:23.245Z,67.28
2023-09-01T01:56:49.541Z,66.09
2023-09-01T01:59:15.800Z,65.93
2023-09-01T02:01:42.106Z,67.19
2023-09-01T02:04:08.377Z,67.17
2023-09-01T02:06:34.665Z,66.08
2023-09-01T02:09:00.944Z,66.94
2023-09-01T02:11:27.249Z,67.02
2023-09-01T02:13:53.597Z,67.37
2023-09-01T02:16:19.996Z,68.67
2023-09-01T02:18:46.310Z,68.58
2023-09-01T02:21:12.581Z,69.39
2023-09-01T02:23:38.835Z,67.60
2023-09-01T02:26:05.110Z,68.75
2023-09-01T02:28:31.371Z,68.57
2023-09-01T02:30:57.749Z,68.65
2023-09-01T02:33:24.068Z,69.78
2023-09-01T02:35:50.328Z,68.50
2023-09-01T02:38:16.863Z,68.71
2023-09-01T02:40:43.405Z,68.47
2023-09-01T02:43:09.662Z,69.27
2023-09-01T02:45:35.937Z,69.11
2023-09-01T02:48:02.253Z,68.69
2023-09-01T02:50:28.577Z,68.92
2023-09-01T02:52:54.865Z,68.86
2023-09-01T02:55:21.189Z,67.92
2023-09-01T02:57:47.506Z,67.26
2023-09-01T03:00:13.783Z,66.21
2023-09-01T03:02:40.129Z,65.84
2023-09-01T03:05:06.504Z,65.63
2023-09-01T03:07:32.781Z,65.29
2023-09-01T03:09:59.061Z,64.65
2023-09-01T03:12:25.320Z,64.68
2023-09-01T03:14:51.595Z,66.49
2023-09-01T03:17:17.853Z,67.24
2023-09-01T03:19:44.145Z,67.61
2023-09-01T03:22:10.475Z,67.41
2023-09-01T03:24:36.765Z,66.54
2023-09-01T03:27:03.052Z,66.06
2023-09-01T03:29:29.328Z,65.58
2023-09-01T03:31:55.635Z,65.54
2023-09-01T03:34:21.914Z,64.35
2023-09-01T03:36:48.202Z,63.62
2023-09-01T03:39:14.580Z,63.34
2023-09-01T03:41:40.858Z,63.59
2023-09-01T03:44:07.126Z,63.39
2023-09-01T03:46:33.406Z,64.37
2023-09-01T03:48:59.692Z,65.94
2023-09-01T03:51:25.968Z,65.43
2023-09-01T03:53:52.243Z,64.09
2023-09-01T03:56:18.550Z,64.44
2023-09-01T03:58:44.864Z,64.38
2023-09-01T04:01:11.177Z,64.23
2023-09-01T04:03:37.569Z,65.78
2023-09-01T04:06:03.917Z,66.21
2023-09-01T04:08:30.203Z,65.73
2023-09-01T04:10:56.468Z,65.42
2023-09-01T04:13:35.999Z,66.85
2023-09-01T04:16:19.427Z,66.99
2023-09-01T04:18:45.776Z,67.38
2023-09-01T04:21:12.086Z,68.72
2023-09-01T04:23:38.337Z,66.73
2023-09-01T04:26:04.627Z,68.42
2023-09-01T04:28:30.966Z,67.70
2023-09-01T04:30:57.213Z,66.93
2023-09-01T04:33:23.529Z,66.22
2023-09-01T04:35:49.821Z,66.49
2023-09-01T04:38:16.326Z,66.00
2023-09-01T04:40:42.817Z,64.41
2023-09-01T04:43:09.132Z,64.02
2023-09-01T04:45:35.425Z,64.37
2023-09-01T04:48:01.723Z,64.25
2023-09-01T04:50:28.021Z,64.24
2023-09-01T04:52:54.296Z,63.79
2023-09-01T04:55:20.603Z,64.17
2023-09-01T04:57:46.880Z,63.42
2023-09-01T05:00:13.140Z,63.53
2023-09-01T05:02:39.426Z,64.94
2023-09-01T05:05:05.753Z,63.88
2023-09-01T05:07:32.011Z,64.87
2023-09-01T05:09:58.281Z,63.65
2023-09-01T05:12:24.550Z,63.48
2023-09-01T05:14:50.807Z,64.44
2023-09-01T05:17:17.211Z,63.24
2023-09-01T05:19:43.521Z,61.15
2023-09-01T05:22:09.781Z,60.16
2023-09-01T05:24:36.042Z,59.12
2023-09-01T05:27:02.344Z,58.95
2023-09-01T05:29:28.674Z,59.70
2023-09-01T05:31:54.963Z,60.96
2023-09-01T05:34:21.290Z,61.25
2023-09-01T05:36:47.600Z,63.72
2023-09-01T05:39:13.862Z,62.99
2023-09-01T05:41:40.134Z,63.65
2023-09-01T05:44:06.388Z,63.06
2023-09-01T05:46:32.672Z,62.35
2023-09-01T05:48:58.969Z,61.30
2023-09-01T05:51:25.248Z,59.51
2023-09-01T05:53:51.524Z,60.82
2023-09-01T05:56:17.799Z,62.59
2023-09-01T05:58:44.057Z,62.38
2023-09-01T06:01:10.410Z,61.22
2023-09-01T06:03:36.727Z,61.20
2023-09-01T06:06:03.007Z,57.13
2023-09-01T06:08:29.272Z,54.95
2023-09-01T06:10:55.566Z,54.75
2023-09-01T06:13:21.842Z,56.55
2023-09-01T06:15:48.189Z,54.88
2023-09-01T06:18:14.756Z,54.95
2023-09-01T06:20:41.261Z,54.90
2023-09-01T06:23:07.542Z,55.05
2023-09-01T06:25:33.801Z,53.92
2023-09-01T06:28:00.067Z,55.32
2023-09-01T06:30:26.331Z,52.64
2023-09-01T06:32:52.737Z,52.63
2023-09-01T06:35:19.066Z,55.00
2023-09-01T06:37:45.361Z,55.35
2023-09-01T06:40:11.650Z,54.97
2023-09-01T06:42:37.933Z,52.50
2023-09-01T06:45:04.187Z,54.03
2023-09-01T06:47:30.481Z,54.91
2023-09-01T06:49:56.777Z,55.87
2023-09-01T06:52:23.043Z,53.44
2023-09-01T06:54:49.312Z,53.62
2023-09-01T06:57:15.585Z,53.85
2023-09-01T06:59:41.931Z,55.33
2023-09-01T07:02:08.184Z,53.03
2023-09-01T07:04:34.448Z,54.75
2023-09-01T07:07:00.708Z,53.33
2023-09-01T07:09:26.970Z,55.37
2023-09-01T07:11:53.221Z,55.14
2023-09-01T07:14:19.495Z,56.88
2023-09-01T07:16:45.765Z,53.14
2023-09-01T07:19:12.035Z,53.76
2023-09-01T07:21:38.302Z,54.18
2023-09-01T07:24:04.606Z,53.62
2023-09-01T07:26:30.888Z,52.98
2023-09-01T07:28:57.175Z,55.51
2023-09-01T07:31:23.479Z,52.55
2023-09-01T07:33:49.762Z,54.25
2023-09-01T07:36:16.039Z,55.42
2023-09-01T07:38:42.352Z,52.54
2023-09-01T07:41:08.652Z,53.59
2023-09-01T07:43:34.928Z,53.20
2023-09-01T07:46:01.223Z,55.14
2023-09-01T07:48:27.817Z,56.33
2023-09-01T07:50:54.330Z,54.86
2023-09-01T07:53:20.625Z,53.76
2023-09-01T07:55:46.910Z,54.73
2023-09-01T07:58:13.477Z,53.18
2023-09-01T08:00:40.192Z,52.94
2023-09-01T08:03:06.645Z,53.82
2023-09-01T08:05:33.020Z,54.32
2023-09-01T08:07:59.311Z,55.40
2023-09-01T08:10:25.582Z,56.05
2023-09-01T08:12:51.850Z,58.70
2023-09-01T08:15:18.148Z,58.21
2023-09-01T08:17:44.458Z,58.38
2023-09-01T08:20:13.198Z,58.48
2023-09-01T08:22:40.707Z,55.87
2023-09-01T08:25:06.984Z,55.46
2023-09-01T08:27:33.351Z,58.20
2023-09-01T08:29:59.644Z,55.30
2023-09-01T08:32:25.942Z,54.83
2023-09-01T08:34:52.224Z,54.32
2023-09-01T08:37:18.515Z,53.59
2023-09-01T08:39:44.782Z,54.63
2023-09-01T08:42:11.037Z,52.41
2023-09-01T08:44:37.299Z,52.01
2023-09-01T08:47:03.629Z,54.33
2023-09-01T08:49:29.926Z,53.51
2023-09-01T08:51:56.215Z,55.30
2023-09-01T08:54:22.494Z,53.97
2023-09-01T08:56:48.750Z,54.21
2023-09-01T08:59:15.023Z,54.50
2023-09-01T09:01:41.330Z,53.37
2023-09-01T09:04:07.767Z,55.11
2023-09-01T09:06:34.104Z,52.80
2023-09-01T09:09:00.375Z,53.50
2023-09-01T09:11:26.710Z,51.21
2023-09-01T09:14:04.297Z,52.70
2023-09-01T09:16:35.846Z,56.24
2023-09-01T09:19:02.293Z,51.15
2023-09-01T09:21:28.646Z,51.78
2023-09-01T09:24:07.052Z,53.92
2023-09-01T09:26:37.844Z,53.82
2023-09-01T09:29:04.133Z,53.19
2023-09-01T09:31:30.429Z,53.09
2023-09-01T09:33:56.699Z,53.12
2023-09-01T09:36:22.976Z,52.21
2023-09-01T09:38:49.250Z,52.79
2023-09-01T09:41:15.515Z,50.81
2023-09-01T09:43:41.800Z,51.12
2023-09-01T09:46:08.146Z,50.95
2023-09-01T09:48:34.471Z,52.68
2023-09-01T09:51:00.800Z,50.96
2023-09-01T09:53:27.078Z,51.18
2023-09-01T09:55:53.338Z,50.13
2023-09-01T09:58:19.654Z,52.18
2023-09-01T10:00:45.954Z,51.61
2023-09-01T10:03:12.292Z,48.74
2023-09-01T10:05:40.702Z,51.19
2023-09-01T10:08:08.438Z,50.59
2023-09-01T10:10:34.788Z,51.34
2023-09-01T10:13:01.107Z,48.80
2023-09-01T10:15:27.375Z,46.50
2023-09-01T10:17:53.757Z,51.50
2023-09-01T10:20:20.036Z,50.36
2023-09-01T10:22:46.341Z,49.08
2023-09-01T10:25:12.612Z,50.50
2023-09-01T10:27:38.911Z,48.22
2023-09-01T10:30:05.170Z,48.41
2023-09-01T10:32:31.460Z,47.70
2023-09-01T10:34:57.737Z,45.64
2023-09-01T10:37:24.002Z,46.89
2023-09-01T10:39:50.271Z,46.66
2023-09-01T10:42:16.642Z,48.24
2023-09-01T10:44:42.903Z,46.58
2023-09-01T10:47:09.175Z,46.60
2023-09-01T10:49:35.525Z,47.39
2023-09-01T10:52:01.967Z,46.45
2023-09-01T10:54:28.228Z,47.15
2023-09-01T10:56:54.516Z,48.62
2023-09-01T10:59:20.800Z,47.86
2023-09-01T11:01:47.125Z,47.74
2023-09-01T11:04:13.885Z,46.29
2023-09-01T11:06:40.160Z,48.16
2023-09-01T11:09:06.780Z,47.11
2023-09-01T11:11:34.243Z,45.97
2023-09-01T11:14:00.516Z,46.96
2023-09-01T11:16:26.814Z,46.46
2023-09-01T11:18:53.132Z,44.06
2023-09-01T11:21:21.484Z,46.27
2023-09-01T11:23:48.002Z,45.71
2023-09-01T11:26:14.268Z,46.51
2023-09-01T11:28:40.522Z,46.46
2023-09-01T11:31:07.105Z,45.04
2023-09-01T11:33:33.564Z,45.38
2023-09-01T11:35:59.935Z,43.93
2023-09-01T11:38:26.268Z,44.47
2023-09-01T11:40:52.695Z,42.40
2023-09-01T11:43:19.016Z,44.29
2023-09-01T11:45:45.306Z,46.04
2023-09-01T11:48:11.652Z,42.04
2023-09-01T11:50:37.967Z,39.78
2023-09-01T11:53:04.238Z,42.74
2023-09-01T11:55:31.632Z,43.44
2023-09-01T11:57:58.146Z,42.05
2023-09-01T12:00:24.416Z,43.36
2023-09-01T12:02:50.701Z,43.96
2023-09-01T12:05:17.035Z,46.09
2023-09-01T12:07:43.309Z,42.00
2023-09-01T12:10:09.615Z,44.81
2023-09-01T12:12:35.892Z,45.28
2023-09-01T12:15:02.180Z,45.82
2023-09-01T12:17:28.590Z,45.10
2023-09-01T12:19:54.974Z,44.46
2023-09-01T12:22:21.284Z,44.46
2023-09-01T12:24:47.581Z,44.30
2023-09-01T12:27:13.945Z,43.63
2023-09-01T12:29:40.296Z,43.29
2023-09-01T12:32:06.649Z,45.69
2023-09-01T12:34:33.045Z,45.14
2023-09-01T12:36:59.304Z,45.69
2023-09-01T12:39:25.640Z,46.71
2023-09-01T12:41:51.946Z,45.98
2023-09-01T12:44:18.280Z,46.54
2023-09-01T12:46:44.631Z,45.17
2023-09-01T12:49:10.935Z,45.83
2023-09-01T12:51:37.218Z,45.08
2023-09-01T12:54:03.550Z,45.54
2023-09-01T12:56:29.928Z,44.81
2023-09-01T12:58:56.200Z,45.44
2023-09-01T13:01:22.587Z,43.88
2023-09-01T13:03:49.028Z,45.43
2023-09-01T13:06:15.309Z,47.24
2023-09-01T13:08:41.582Z,45.53
2023-09-01T13:11:09.962Z,47.03
2023-09-01T13:13:36.609Z,46.30
2023-09-01T13:16:02.926Z,46.24
2023-09-01T13:18:29.244Z,46.64
2023-09-01T13:20:55.520Z,48.15
2023-09-01T13:23:21.831Z,47.62
2023-09-01T13:25:48.122Z,48.50
2023-09-01T13:28:14.387Z,49.33
2023-09-01T13:30:40.649Z,48.83
2023-09-01T13:33:07.054Z,47.81
2023-09-01T13:35:33.411Z,49.06
2023-09-01T13:37:59.680Z,48.83
2023-09-01T13:40:25.966Z,48.28
2023-09-01T13:42:52.283Z,47.48
2023-09-01T13:45:18.562Z,47.50
2023-09-01T13:47:44.906Z,48.88
2023-09-01T13:50:11.267Z,50.32
2023-09-01T13:52:38.945Z,48.70
2023-09-01T13:55:05.470Z,48.55
2023-09-01T13:57:33.780Z,48.30
2023-09-01T14:00:00.169Z,48.06
2023-09-01T14:02:26.572Z,47.88
2023-09-01T14:04:52.855Z,46.68
2023-09-01T14:07:19.200Z,46.83
2023-09-01T14:09:45.548Z,45.25
2023-09-01T14:12:11.940Z,45.74
2023-09-01T14:14:38.230Z,44.90
2023-09-01T14:17:04.577Z,45.17
2023-09-01T14:19:30.957Z,47.83
2023-09-01T14:21:57.248Z,47.23
2023-09-01T14:24:23.567Z,47.55
2023-09-01T14:26:49.856Z,47.62
2023-09-01T14:29:16.184Z,48.38
2023-09-01T14:31:42.463Z,48.06
2023-09-01T14:34:08.752Z,48.00
2023-09-01T14:36:35.042Z,45.89
2023-09-01T14:39:01.355Z,46.50
2023-09-01T14:41:27.663Z,48.08
2023-09-01T14:43:53.946Z,46.68
2023-09-01T14:46:20.323Z,47.38
2023-09-01T14:48:46.637Z,46.84
2023-09-01T14:51:12.899Z,47.87
2023-09-01T14:53:39.176Z,46.79
2023-09-01T14:56:05.450Z,47.73
2023-09-01T14:58:31.754Z,48.25
2023-09-01T15:00:58.062Z,47.78
2023-09-01T15:03:24.439Z,46.16
2023-09-01T15:05:50.765Z,47.09
2023-09-01T15:08:17.052Z,47.02
2023-09-01T15:10:43.342Z,47.39
2023-09-01T15:13:09.618Z,48.94
2023-09-01T15:15:35.901Z,49.54
2023-09-01T15:18:02.201Z,47.35
2023-09-01T15:20:28.568Z,48.22
2023-09-01T15:22:54.839Z,46.81
2023-09-01T15:25:21.090Z,45.68
2023-09-01T15:27:47.445Z,46.48
2023-09-01T15:30:13.778Z,45.60
2023-09-01T15:32:40.076Z,46.37
2023-09-01T15:35:20.829Z,45.89
2023-09-01T15:37:48.100Z,47.12
2023-09-01T15:40:14.393Z,48.31
2023-09-01T15:42:40.694Z,48.97
2023-09-01T15:45:06.962Z,46.95
2023-09-01T15:47:33.286Z,47.01
2023-09-01T15:49:59.615Z,47.15
2023-09-01T15:52:25.999Z,49.04
2023-09-01T15:54:52.292Z,48.25
2023-09-01T15:57:18.563Z,51.09
2023-09-01T15:59:44.851Z,49.32
2023-09-01T16:02:11.200Z,47.89
2023-09-01T16:04:37.635Z,47.95
2023-09-01T16:07:03.973Z,51.67
2023-09-01T16:09:30.247Z,48.11
2023-09-01T16:11:56.517Z,51.41
2023-09-01T16:14:22.785Z,50.15
2023-09-01T16:16:49.086Z,52.31
2023-09-01T16:19:15.351Z,52.89
2023-09-01T16:21:41.616Z,52.02
2023-09-01T16:24:07.890Z,51.82
2023-09-01T16:26:35.423Z,54.59
2023-09-01T16:29:01.698Z,52.98
2023-09-01T16:31:28.022Z,53.74
2023-09-01T16:33:54.344Z,54.16
2023-09-01T16:36:20.610Z,53.45
2023-09-01T16:38:46.870Z,54.01
2023-09-01T16:41:13.128Z,54.79
2023-09-01T16:43:39.416Z,54.72
2023-09-01T16:46:05.707Z,53.40
2023-09-01T16:48:31.982Z,53.51
2023-09-01T16:50:58.288Z,54.54
2023-09-01T16:53:24.579Z,54.07
2023-09-01T16:55:50.925Z,55.20
2023-09-01T16:58:17.292Z,54.07
2023-09-01T17:00:43.641Z,55.20
2023-09-01T17:03:10.241Z,56.17
2023-09-01T17:05:36.704Z,53.91
2023-09-01T17:08:03.006Z,53.81
2023-09-01T17:10:29.297Z,53.62
2023-09-01T17:12:55.565Z,55.06
2023-09-01T17:15:21.844Z,53.65
2023-09-01T17:17:48.137Z,54.32
2023-09-01T17:20:14.410Z,53.71
2023-09-01T17:22:40.714Z,56.10
2023-09-01T17:25:06.974Z,54.83
2023-09-01T17:27:33.262Z,54.93
2023-09-01T17:29:59.525Z,54.47
2023-09-01T17:32:25.913Z,55.60
2023-09-01T17:34:55.284Z,54.75
2023-09-01T17:37:21.950Z,51.83
2023-09-01T17:39:48.234Z,51.19
2023-09-01T17:42:14.512Z,54.00
2023-09-01T17:44:40.824Z,55.35
2023-09-01T17:47:07.112Z,55.72
2023-09-01T17:49:33.390Z,55.97
2023-09-01T17:51:59.668Z,55.59
2023-09-01T17:54:25.957Z,54.55
2023-09-01T17:56:52.218Z,54.38
2023-09-01T17:59:18.505Z,56.37
2023-09-01T18:01:44.823Z,56.80
2023-09-01T18:04:11.222Z,57.03
2023-09-01T18:06:37.623Z,57.51
2023-09-01T18:09:03.892Z,56.67
2023-09-01T18:11:30.144Z,55.39
2023-09-01T18:13:56.503Z,54.59
2023-09-01T18:16:22.800Z,56.02
2023-09-01T18:18:49.078Z,55.46
2023-09-01T18:21:15.349Z,55.19
2023-09-01T18:23:41.684Z,55.07
2023-09-01T18:26:07.959Z,55.36
2023-09-01T18:28:34.222Z,55.65
2023-09-01T18:31:00.505Z,55.96
2023-09-01T18:33:26.765Z,54.50
2023-09-01T18:35:53.042Z,54.74
2023-09-01T18:38:19.320Z,53.50
2023-09-01T18:40:45.574Z,52.65
2023-09-01T18:43:11.858Z,53.55
2023-09-01T18:45:38.165Z,53.38
2023-09-01T18:48:04.532Z,53.53
2023-09-01T18:50:30.851Z,54.29
2023-09-01T18:52:57.121Z,54.73
2023-09-01T18:55:23.395Z,56.34
2023-09-01T18:57:49.725Z,55.83
2023-09-01T19:00:16.027Z,53.87
2023-09-01T19:02:42.429Z,55.16
2023-09-01T19:05:08.791Z,55.39
2023-09-01T19:07:35.112Z,55.04
2023-09-01T19:10:01.449Z,54.69
2023-09-01T19:12:27.699Z,54.88
2023-09-01T19:14:53.992Z,56.34
2023-09-01T19:17:20.265Z,56.70
2023-09-01T19:19:46.572Z,56.87
2023-09-01T19:22:12.892Z,54.84
2023-09-01T19:24:39.222Z,54.16
2023-09-01T19:27:05.489Z,54.01
2023-09-01T19:29:31.805Z,54.00
2023-09-01T19:31:58.142Z,54.16
2023-09-01T19:34:24.432Z,55.14
2023-09-01T19:36:50.764Z,57.12
2023-09-01T19:39:17.040Z,56.43
2023-09-01T19:41:43.299Z,55.23
2023-09-01T19:44:11.685Z,54.78
2023-09-01T19:46:38.527Z,54.20
2023-09-01T19:49:04.812Z,54.33
2023-09-01T19:51:31.148Z,53.44
2023-09-01T19:53:57.427Z,53.24
2023-09-01T19:56:23.743Z,52.88
2023-09-01T19:58:50.082Z,52.06
2023-09-01T20:01:17.547Z,53.63
2023-09-01T20:03:44.065Z,55.27
2023-09-01T20:06:10.347Z,54.58
2023-09-01T20:08:36.636Z,54.78
2023-09-01T20:11:02.887Z,53.71
2023-09-01T20:13:29.943Z,55.17
2023-09-01T20:15:56.406Z,56.43
2023-09-01T20:18:22.858Z,57.35
2023-09-01T20:20:49.166Z,57.91
2023-09-01T20:23:15.711Z,58.18
2023-09-01T20:25:42.161Z,58.12
2023-09-01T20:28:08.474Z,57.45
2023-09-01T20:30:34.816Z,59.03
2023-09-01T20:33:01.184Z,58.80
2023-09-01T20:35:27.558Z,58.52
2023-09-01T20:37:53.874Z,58.90
2023-09-01T20:40:20.138Z,58.55
2023-09-01T20:42:46.422Z,59.39
2023-09-01T20:45:12.707Z,59.91
2023-09-01T20:47:39.084Z,59.65
2023-09-01T20:50:05.412Z,58.86
2023-09-01T20:52:31.682Z,58.92
2023-09-01T20:54:57.974Z,59.36
2023-09-01T20:57:26.009Z,59.14
2023-09-01T20:59:52.314Z,59.38
2023-09-01T21:02:18.554Z,59.84
2023-09-01T21:04:44.813Z,60.13
2023-09-01T21:07:11.087Z,58.71
2023-09-01T21:09:37.376Z,59.06
2023-09-01T21:12:03.653Z,58.96
2023-09-01T21:14:29.911Z,59.30
2023-09-01T21:16:56.302Z,58.71
2023-09-01T21:19:22.774Z,58.89
2023-09-01T21:21:49.051Z,58.37
2023-09-01T21:24:15.327Z,59.50
2023-09-01T21:26:41.601Z,59.28
2023-09-01T21:29:07.873Z,59.83
2023-09-01T21:31:34.144Z,59.50
2023-09-01T21:34:00.472Z,59.31
2023-09-01T21:36:26.784Z,58.72
2023-09-01T21:38:53.050Z,58.67
2023-09-01T21:41:19.309Z,58.15
2023-09-01T21:43:45.659Z,58.30
2023-09-01T21:46:11.947Z,58.29
2023-09-01T21:48:38.276Z,57.76
2023-09-01T21:51:04.555Z,56.09
2023-09-01T21:53:30.824Z,56.85
2023-09-01T21:55:57.093Z,57.52
2023-09-01T21:58:23.396Z,58.70
2023-09-01T22:00:49.820Z,59.94
2023-09-01T22:03:16.323Z,60.78
2023-09-01T22:05:42.839Z,60.38
2023-09-01T22:08:09.136Z,61.24
2023-09-01T22:10:35.394Z,60.61
2023-09-01T22:13:01.677Z,61.07
2023-09-01T22:15:27.944Z,60.65
2023-09-01T22:17:54.220Z,60.58
2023-09-01T22:20:20.590Z,59.39
2023-09-01T22:22:46.866Z,59.47
2023-09-01T22:25:13.205Z,59.87
2023-09-01T22:27:39.493Z,60.43
2023-09-01T22:30:05.802Z,60.19
2023-09-01T22:32:32.108Z,59.80
2023-09-01T22:34:58.409Z,59.94
2023-09-01T22:37:24.704Z,58.90
2023-09-01T22:39:50.956Z,59.71
2023-09-01T22:42:17.253Z,58.91
2023-09-01T22:44:43.505Z,58.75
2023-09-01T22:47:09.797Z,59.13
2023-09-01T22:49:36.074Z,58.89
2023-09-01T22:52:02.371Z,58.76
2023-09-01T22:54:28.637Z,59.85
2023-09-01T22:56:54.908Z,60.07
2023-09-01T22:59:21.187Z,60.13
2023-09-01T23:01:47.512Z,59.32
2023-09-01T23:04:13.793Z,58.82
2023-09-01T23:06:40.071Z,58.23
2023-09-01T23:09:06.362Z,58.99
2023-09-01T23:11:32.637Z,58.43
2023-09-01T23:13:58.895Z,58.35
2023-09-01T23:16:25.237Z,59.58
2023-09-01T23:18:51.577Z,60.23
2023-09-01T23:21:17.845Z,60.25
2023-09-01T23:23:44.107Z,59.22
2023-09-01T23:26:10.369Z,60.72
2023-09-01T23:28:36.642Z,61.60
2023-09-01T23:31:02.917Z,59.13
2023-09-01T23:33:29.190Z,59.03
2023-09-01T23:35:55.494Z,60.20
2023-09-01T23:38:21.816Z,59.40
2023-09-01T23:40:48.093Z,58.31
2023-09-01T23:43:14.366Z,59.09
2023-09-01T23:45:40.848Z,58.82
2023-09-01T23:48:07.232Z,58.16
2023-09-01T23:50:33.493Z,58.02
2023-09-01T23:52:59.797Z,56.66
2023-09-01T23:55:26.078Z,57.59
2023-09-01T23:57:52.339Z,57.76
